createdAt,value
2022-08-07T00:00:40.647Z,0.00
2022-08-07T00:02:35.238Z,0.00
2022-08-07T00:02:44.368Z,0.00
2022-08-07T00:03:39.986Z,0.00
2022-08-07T00:04:41.376Z,0.00
2022-08-07T00:05:40.366Z,0.00
2022-08-07T00:06:40.940Z,0.00
2022-08-07T00:07:41.819Z,0.00
2022-08-07T00:08:44.536Z,0.00
2022-08-07T00:09:40.876Z,0.00
2022-08-07T00:10:47.641Z,0.00
2022-08-07T00:11:53.882Z,0.00
2022-08-07T00:12:57.879Z,0.00
2022-08-07T00:13:44.851Z,0.00
2022-08-07T00:14:44.230Z,0.00
2022-08-07T00:15:46.792Z,0.00
2022-08-07T00:16:42.927Z,0.00
2022-08-07T00:17:42.034Z,0.00
2022-08-07T00:18:42.165Z,0.00
2022-08-07T00:20:01.007Z,0.00
2022-08-07T00:20:43.475Z,0.00
2022-08-07T00:21:57.202Z,0.00
2022-08-07T00:22:43.661Z,0.00
2022-08-07T00:23:43.743Z,0.00
2022-08-07T00:24:42.935Z,0.00
2022-08-07T00:25:43.027Z,0.00
2022-08-07T00:26:49.127Z,0.00
2022-08-07T00:27:52.384Z,0.00
2022-08-07T00:28:46.008Z,0.00
2022-08-07T00:29:44.626Z,0.00
2022-08-07T00:30:43.723Z,0.00
2022-08-07T00:31:43.852Z,0.00
2022-08-07T00:32:45.071Z,0.00
2022-08-07T00:33:47.784Z,0.00
2022-08-07T00:34:44.203Z,0.00
2022-08-07T00:35:49.034Z,0.00
2022-08-07T00:36:45.452Z,0.00
2022-08-07T00:37:48.374Z,0.00
2022-08-07T00:38:44.679Z,0.00
2022-08-07T00:39:45.305Z,0.00
2022-08-07T00:40:45.927Z,0.00
2022-08-07T00:41:53.321Z,0.00
2022-08-07T00:42:46.238Z,0.00
2022-08-07T00:43:59.195Z,0.00
2022-08-07T00:44:46.472Z,0.00
2022-08-07T00:45:46.601Z,0.00
2022-08-07T00:46:45.805Z,0.00
2022-08-07T00:48:08.915Z,0.00
2022-08-07T00:48:49.727Z,0.00
2022-08-07T00:50:19.864Z,0.00
2022-08-07T00:50:51.311Z,0.00
2022-08-07T00:51:57.503Z,0.00
2022-08-07T00:52:47.712Z,0.00
2022-08-07T00:53:55.014Z,0.00
2022-08-07T00:54:53.770Z,0.00
2022-08-07T00:56:02.665Z,0.00
2022-08-07T00:56:49.869Z,0.00
2022-08-07T00:57:56.042Z,0.00
2022-08-07T00:58:49.687Z,0.00
2022-08-07T00:59:47.313Z,0.00
2022-08-07T01:00:53.541Z,0.00
2022-08-07T01:01:48.675Z,0.00
2022-08-07T01:02:47.855Z,0.00
2022-08-07T01:03:56.981Z,0.00
2022-08-07T01:04:49.009Z,0.00
2022-08-07T01:05:53.516Z,0.00
2022-08-07T01:06:53.841Z,0.00
2022-08-07T01:07:48.349Z,0.00
2022-08-07T01:08:53.030Z,0.00
2022-08-07T01:10:06.578Z,0.00
2022-08-07T01:10:54.400Z,0.00
2022-08-07T01:12:23.439Z,0.00
2022-08-07T01:12:53.949Z,0.00
2022-08-07T01:13:55.821Z,0.00
2022-08-07T01:14:50.320Z,0.00
2022-08-07T01:16:01.086Z,0.00
2022-08-07T01:16:50.589Z,0.00
2022-08-07T01:17:49.733Z,0.00
2022-08-07T01:18:49.879Z,0.00
2022-08-07T01:19:54.464Z,0.00
2022-08-07T01:20:57.277Z,0.00
2022-08-07T01:21:53.237Z,0.00
2022-08-07T01:23:00.407Z,0.00
2022-08-07T01:23:51.490Z,0.00
2022-08-07T01:24:50.621Z,0.00
2022-08-07T01:25:55.741Z,0.00
2022-08-07T01:26:52.692Z,0.00
2022-08-07T01:27:51.609Z,0.00
2022-08-07T01:28:51.109Z,0.00
2022-08-07T01:29:51.187Z,0.00
2022-08-07T01:30:52.098Z,0.00
2022-08-07T01:31:51.437Z,0.00
2022-08-07T01:32:51.581Z,0.00
2022-08-07T01:33:57.428Z,0.00
2022-08-07T01:34:52.877Z,0.00
2022-08-07T01:35:54.326Z,0.00
2022-08-07T01:36:52.655Z,0.00
2022-08-07T01:37:53.248Z,0.00
2022-08-07T01:38:52.388Z,0.00
2022-08-07T01:39:52.605Z,0.00
2022-08-07T01:40:52.736Z,0.00
2022-08-07T01:42:06.110Z,0.00
2022-08-07T01:42:58.685Z,0.00
2022-08-07T01:43:54.139Z,0.00
2022-08-07T01:44:53.338Z,0.00
2022-08-07T01:45:54.593Z,0.00
2022-08-07T01:46:53.498Z,0.00
2022-08-07T01:48:21.110Z,0.00
2022-08-07T01:48:54.759Z,0.00
2022-08-07T01:49:54.836Z,0.00
2022-08-07T01:50:55.596Z,0.00
2022-08-07T01:52:04.258Z,0.00
2022-08-07T01:52:55.419Z,0.00
2022-08-07T01:54:11.771Z,0.00
2022-08-07T01:54:55.726Z,0.00
2022-08-07T01:55:54.849Z,0.00
2022-08-07T01:56:55.154Z,0.00
2022-08-07T01:58:06.096Z,0.00
2022-08-07T01:58:56.223Z,0.00
2022-08-07T01:59:55.308Z,0.00
2022-08-07T02:01:09.488Z,0.00
2022-08-07T02:02:02.876Z,0.00
2022-08-07T02:03:18.835Z,0.00
2022-08-07T02:03:56.845Z,0.00
2022-08-07T02:04:57.276Z,0.00
2022-08-07T02:05:59.655Z,0.00
2022-08-07T02:06:57.206Z,0.00
2022-08-07T02:07:56.328Z,0.00
2022-08-07T02:08:56.568Z,0.00
2022-08-07T02:09:58.781Z,0.00
2022-08-07T02:10:57.900Z,0.00
2022-08-07T02:12:03.704Z,0.00
2022-08-07T02:12:58.076Z,0.00
2022-08-07T02:14:02.362Z,0.00
2022-08-07T02:14:58.427Z,0.00
2022-08-07T02:15:57.519Z,0.00
2022-08-07T02:16:57.626Z,0.00
2022-08-07T02:17:57.741Z,0.00
2022-08-07T02:18:57.887Z,0.00
2022-08-07T02:20:07.708Z,0.00
2022-08-07T02:20:59.139Z,0.00
2022-08-07T02:21:59.270Z,0.00
2022-08-07T02:22:59.751Z,0.00
2022-08-07T02:23:58.494Z,0.00
2022-08-07T02:24:58.674Z,0.00
2022-08-07T02:26:30.995Z,0.00
2022-08-07T02:27:01.367Z,0.00
2022-08-07T02:27:59.034Z,0.00
2022-08-07T02:28:59.216Z,0.00
2022-08-07T02:29:59.372Z,0.00
2022-08-07T02:30:59.524Z,0.00
2022-08-07T02:32:00.635Z,0.00
2022-08-07T02:33:00.165Z,0.00
2022-08-07T02:34:03.223Z,0.00
2022-08-07T02:35:01.139Z,0.00
2022-08-07T02:36:27.157Z,0.00
2022-08-07T02:37:01.256Z,0.00
2022-08-07T02:38:00.374Z,0.00
2022-08-07T02:39:00.617Z,0.00
2022-08-07T02:40:11.747Z,0.00
2022-08-07T02:41:04.105Z,0.00
2022-08-07T02:42:00.933Z,0.00
2022-08-07T02:43:01.065Z,0.00
2022-08-07T02:44:02.163Z,0.00
2022-08-07T02:45:01.292Z,0.00
2022-08-07T02:46:02.853Z,0.00
2022-08-07T02:47:01.535Z,0.00
2022-08-07T02:48:01.950Z,0.00
2022-08-07T02:49:03.340Z,0.00
2022-08-07T02:50:01.853Z,0.00
2022-08-07T02:51:02.033Z,0.00
2022-08-07T02:52:02.175Z,0.00
2022-08-07T02:53:06.283Z,0.00
2022-08-07T02:54:02.449Z,0.00
2022-08-07T02:55:02.588Z,0.00
2022-08-07T02:56:11.245Z,0.00
2022-08-07T02:57:03.876Z,0.00
2022-08-07T02:58:03.011Z,0.00
2022-08-07T02:59:03.233Z,0.00
2022-08-07T03:00:10.348Z,0.00
2022-08-07T03:01:04.454Z,0.00
2022-08-07T03:02:03.575Z,0.00
2022-08-07T03:03:05.987Z,0.00
2022-08-07T03:04:07.540Z,0.00
2022-08-07T03:05:06.772Z,0.00
2022-08-07T03:06:04.067Z,0.00
2022-08-07T03:07:10.335Z,0.00
2022-08-07T03:08:09.323Z,0.00
2022-08-07T03:09:05.404Z,0.00
2022-08-07T03:10:04.517Z,0.00
2022-08-07T03:11:04.630Z,0.00
2022-08-07T03:12:04.767Z,0.00
2022-08-07T03:13:04.943Z,0.00
2022-08-07T03:14:04.990Z,0.00
2022-08-07T03:15:07.428Z,0.00
2022-08-07T03:16:05.240Z,0.00
2022-08-07T03:17:05.393Z,0.00
2022-08-07T03:18:05.518Z,0.00
2022-08-07T03:19:05.684Z,0.00
2022-08-07T03:20:05.832Z,0.00
2022-08-07T03:21:08.524Z,0.00
2022-08-07T03:22:07.119Z,0.00
2022-08-07T03:23:06.272Z,0.00
2022-08-07T03:24:17.645Z,0.00
2022-08-07T03:25:07.470Z,0.00
2022-08-07T03:26:06.629Z,0.00
2022-08-07T03:27:09.101Z,4.00
2022-08-07T03:28:09.643Z,4.00
2022-08-07T03:29:10.421Z,0.00
2022-08-07T03:30:07.237Z,0.00
2022-08-07T03:31:07.329Z,4.00
2022-08-07T03:32:07.447Z,0.00
2022-08-07T03:33:10.084Z,4.00
2022-08-07T03:34:07.721Z,4.00
2022-08-07T03:35:17.988Z,4.00
2022-08-07T03:36:08.941Z,4.00
2022-08-07T03:37:12.337Z,8.00
2022-08-07T03:38:08.170Z,8.00
2022-08-07T03:39:09.386Z,12.00
2022-08-07T03:40:16.458Z,8.00
2022-08-07T03:41:10.358Z,12.00
2022-08-07T03:42:08.784Z,16.00
2022-08-07T03:43:13.757Z,20.00
2022-08-07T03:44:10.069Z,20.00
2022-08-07T03:45:09.197Z,24.00
2022-08-07T03:46:10.507Z,28.00
2022-08-07T03:47:13.521Z,32.00
2022-08-07T03:48:09.997Z,36.00
2022-08-07T03:49:09.766Z,40.00
2022-08-07T03:50:10.588Z,48.00
2022-08-07T03:51:10.259Z,56.00
2022-08-07T03:52:22.441Z,60.00
2022-08-07T03:53:11.375Z,72.00
2022-08-07T03:54:35.191Z,84.00
2022-08-07T03:55:11.659Z,96.00
2022-08-07T03:56:10.829Z,104.00
2022-08-07T03:57:10.977Z,116.00
2022-08-07T03:59:05.735Z,132.00
2022-08-07T03:59:14.776Z,148.00
2022-08-07T04:00:11.411Z,164.00
2022-08-07T04:01:11.810Z,180.00
2022-08-07T04:02:11.725Z,196.00
2022-08-07T04:03:11.894Z,216.00
2022-08-07T04:04:17.197Z,240.00
2022-08-07T04:05:13.086Z,260.00
2022-08-07T04:06:36.336Z,280.00
2022-08-07T04:07:16.802Z,308.00
2022-08-07T04:08:12.506Z,332.00
2022-08-07T04:09:15.650Z,356.00
2022-08-07T04:10:15.426Z,384.00
2022-08-07T04:12:23.897Z,412.00
2022-08-07T04:12:26.249Z,440.00
2022-08-07T04:13:15.331Z,468.00
2022-08-07T04:14:36.993Z,500.00
2022-08-07T04:15:14.484Z,528.00
2022-08-07T04:16:13.668Z,560.00
2022-08-07T04:17:20.287Z,596.00
2022-08-07T04:18:59.890Z,628.00
2022-08-07T04:19:15.661Z,660.00
2022-08-07T04:20:14.177Z,692.00
2022-08-07T04:21:14.297Z,728.00
2022-08-07T04:22:17.307Z,760.00
2022-08-07T04:23:19.187Z,796.00
2022-08-07T04:24:33.734Z,828.00
2022-08-07T04:25:15.909Z,864.00
2022-08-07T04:26:16.842Z,900.00
2022-08-07T04:27:25.419Z,932.00
2022-08-07T04:28:16.263Z,968.00
2022-08-07T04:29:16.371Z,1004.00
2022-08-07T04:30:21.035Z,1036.00
2022-08-07T04:31:20.024Z,1068.00
2022-08-07T04:32:15.863Z,1100.00
2022-08-07T04:33:16.027Z,1132.00
2022-08-07T04:34:16.832Z,1164.00
2022-08-07T04:35:16.297Z,1200.00
2022-08-07T04:36:16.425Z,1232.00
2022-08-07T04:37:20.495Z,1264.00
2022-08-07T04:38:16.766Z,1296.00
2022-08-07T04:39:17.646Z,1332.00
2022-08-07T04:40:17.052Z,1364.00
2022-08-07T04:41:19.115Z,1396.00
2022-08-07T04:42:17.294Z,1424.00
2022-08-07T04:43:17.395Z,1452.00
2022-08-07T04:44:18.889Z,1484.00
2022-08-07T04:45:21.059Z,1512.00
2022-08-07T04:46:25.983Z,1536.00
2022-08-07T04:47:23.622Z,1564.00
2022-08-07T04:48:19.105Z,1588.00
2022-08-07T04:49:25.579Z,1616.00
2022-08-07T04:50:19.342Z,1644.00
2022-08-07T04:51:18.496Z,1668.00
2022-08-07T04:52:18.678Z,1692.00
2022-08-07T04:53:39.895Z,1716.00
2022-08-07T04:54:22.909Z,1736.00
2022-08-07T04:58:11.330Z,1804.00
2022-08-07T04:58:14.295Z,1780.00
2022-08-07T04:58:23.555Z,1756.00
2022-08-07T04:58:34.830Z,1820.00
2022-08-07T05:00:11.476Z,1832.00
2022-08-07T05:00:30.077Z,1860.00
2022-08-07T05:01:20.892Z,1884.00
2022-08-07T05:02:20.975Z,1904.00
2022-08-07T05:04:00.334Z,1928.00
2022-08-07T05:04:21.236Z,1956.00
2022-08-07T05:05:52.631Z,1984.00
2022-08-07T05:06:21.483Z,2008.00
2022-08-07T05:07:21.142Z,2028.00
2022-08-07T05:08:59.307Z,2048.00
2022-08-07T05:09:43.034Z,2064.00
2022-08-07T05:10:21.981Z,2080.00
2022-08-07T05:11:24.481Z,2096.00
2022-08-07T05:12:27.402Z,2112.00
2022-08-07T05:14:52.379Z,2140.00
2022-08-07T05:14:56.260Z,2124.00
2022-08-07T05:15:23.825Z,2152.00
2022-08-07T05:16:21.731Z,2168.00
2022-08-07T05:17:52.698Z,2180.00
2022-08-07T05:18:22.990Z,2196.00
2022-08-07T05:19:32.581Z,2208.00
2022-08-07T05:20:23.207Z,2220.00
2022-08-07T05:21:59.532Z,2232.00
2022-08-07T05:22:27.633Z,2244.00
2022-08-07T05:23:23.160Z,2260.00
2022-08-07T05:24:24.539Z,2272.00
2022-08-07T05:25:35.633Z,2280.00
2022-08-07T05:26:24.648Z,2296.00
2022-08-07T05:28:15.980Z,2312.00
2022-08-07T05:28:26.803Z,2332.00
2022-08-07T05:29:23.361Z,2348.00
2022-08-07T05:30:30.096Z,2364.00
2022-08-07T05:31:24.532Z,2372.00
2022-08-07T05:32:24.659Z,2384.00
2022-08-07T05:33:23.798Z,2396.00
2022-08-07T05:34:26.186Z,2400.00
2022-08-07T05:35:24.080Z,2412.00
2022-08-07T05:36:32.114Z,2424.00
2022-08-07T05:37:25.689Z,2432.00
2022-08-07T05:39:00.729Z,2440.00
2022-08-07T05:40:13.365Z,2452.00
2022-08-07T05:40:25.724Z,2456.00
2022-08-07T05:41:24.898Z,2468.00
2022-08-07T05:42:34.384Z,2476.00
2022-08-07T05:43:50.226Z,2484.00
2022-08-07T05:44:29.148Z,2488.00
2022-08-07T05:45:46.338Z,2500.00
2022-08-07T05:46:26.559Z,2508.00
2022-08-07T05:47:38.094Z,2512.00
2022-08-07T05:48:26.871Z,2520.00
2022-08-07T05:49:25.765Z,2532.00
2022-08-07T05:50:25.930Z,2540.00
2022-08-07T05:51:25.998Z,2544.00
2022-08-07T05:52:32.565Z,2552.00
2022-08-07T05:54:13.096Z,2560.00
2022-08-07T05:54:44.271Z,2568.00
2022-08-07T05:56:02.403Z,2572.00
2022-08-07T05:56:30.140Z,2580.00
2022-08-07T05:57:30.491Z,2588.00
2022-08-07T05:58:36.126Z,2592.00
2022-08-07T05:59:28.093Z,2600.00
2022-08-07T06:00:27.195Z,2608.00
2022-08-07T06:01:27.304Z,2612.00
2022-08-07T06:02:29.224Z,2620.00
2022-08-07T06:03:27.472Z,2628.00
2022-08-07T06:04:30.146Z,2636.00
2022-08-07T06:05:28.537Z,2644.00
2022-08-07T06:06:29.546Z,2648.00
2022-08-07T06:08:14.392Z,2656.00
2022-08-07T06:08:30.874Z,2664.00
2022-08-07T06:10:04.348Z,2676.00
2022-08-07T06:10:29.329Z,2684.00
2022-08-07T06:11:28.674Z,2696.00
2022-08-07T06:12:32.959Z,2712.00
2022-08-07T06:14:10.856Z,2720.00
2022-08-07T06:14:30.275Z,2736.00
2022-08-07T06:15:39.210Z,2744.00
2022-08-07T06:16:30.100Z,2752.00
2022-08-07T06:17:32.140Z,2764.00
2022-08-07T06:18:30.297Z,2768.00
2022-08-07T06:19:52.282Z,2776.00
2022-08-07T06:20:49.873Z,2788.00
2022-08-07T06:22:14.460Z,2792.00
2022-08-07T06:22:33.333Z,2804.00
2022-08-07T06:24:37.509Z,2812.00
2022-08-07T06:24:45.569Z,2820.00
2022-08-07T06:25:34.772Z,2828.00
2022-08-07T06:26:31.327Z,2840.00
2022-08-07T06:27:59.718Z,2852.00
2022-08-07T06:28:31.605Z,2852.00
2022-08-07T06:29:30.726Z,2872.00
2022-08-07T06:30:35.742Z,2880.00
2022-08-07T06:31:38.845Z,2892.00
2022-08-07T06:32:32.669Z,2900.00
2022-08-07T06:33:33.046Z,2912.00
2022-08-07T06:34:31.365Z,2924.00
2022-08-07T06:35:45.400Z,2936.00
2022-08-07T06:36:35.179Z,2948.00
2022-08-07T06:37:44.069Z,2960.00
2022-08-07T06:38:32.825Z,2964.00
2022-08-07T06:40:16.202Z,2984.00
2022-08-07T06:40:35.067Z,2992.00
2022-08-07T06:42:01.923Z,3008.00
2022-08-07T06:42:35.234Z,3020.00
2022-08-07T06:43:39.569Z,3032.00
2022-08-07T06:44:34.011Z,3056.00
2022-08-07T06:45:32.698Z,3068.00
2022-08-07T06:46:35.251Z,3080.00
2022-08-07T06:47:48.294Z,3096.00
2022-08-07T06:48:34.036Z,3104.00
2022-08-07T06:49:33.136Z,3124.00
2022-08-07T06:50:33.280Z,3148.00
2022-08-07T06:51:33.886Z,3168.00
2022-08-07T06:52:35.700Z,3184.00
2022-08-07T06:54:12.198Z,3196.00
2022-08-07T06:55:33.270Z,3220.00
2022-08-07T06:55:59.906Z,3232.00
2022-08-07T06:56:35.027Z,3248.00
2022-08-07T06:57:39.816Z,3264.00
2022-08-07T06:58:35.283Z,3280.00
2022-08-07T07:00:15.034Z,3304.00
2022-08-07T07:00:35.527Z,3404.00
2022-08-07T07:01:43.813Z,3552.00
2022-08-07T07:02:53.792Z,3668.00
2022-08-07T07:03:48.942Z,3636.00
2022-08-07T07:04:36.087Z,3628.00
2022-08-07T07:06:03.307Z,3656.00
2022-08-07T07:06:39.416Z,3692.00
2022-08-07T07:07:59.922Z,3716.00
2022-08-07T07:08:39.958Z,3740.00
2022-08-07T07:09:36.724Z,3768.00
2022-08-07T07:10:35.838Z,3788.00
2022-08-07T07:12:10.666Z,3804.00
2022-08-07T07:12:37.058Z,3832.00
2022-08-07T07:13:55.582Z,3868.00
2022-08-07T07:14:37.307Z,3872.00
2022-08-07T07:15:38.338Z,3896.00
2022-08-07T07:16:39.230Z,3912.00
2022-08-07T07:17:38.811Z,3928.00
2022-08-07T07:18:47.704Z,3932.00
2022-08-07T07:19:55.874Z,3940.00
2022-08-07T07:20:38.034Z,3948.00
2022-08-07T07:22:04.174Z,3984.00
2022-08-07T07:24:05.991Z,3984.00
2022-08-07T07:24:08.908Z,4016.00
2022-08-07T07:24:38.546Z,4020.00
2022-08-07T07:26:35.523Z,4044.00
2022-08-07T07:26:38.855Z,4052.00
2022-08-07T07:27:58.583Z,4064.00
2022-08-07T07:28:48.280Z,4088.00
2022-08-07T07:30:09.395Z,4144.00
2022-08-07T07:30:39.694Z,4180.00
2022-08-07T07:31:40.172Z,4236.00
2022-08-07T07:32:39.475Z,4716.00
2022-08-07T07:33:38.635Z,6668.00
2022-08-07T07:34:39.656Z,7888.00
2022-08-07T07:35:43.960Z,7192.00
2022-08-07T07:36:40.452Z,5204.00
2022-08-07T07:37:58.942Z,4356.00
2022-08-07T07:38:40.276Z,4344.00
2022-08-07T07:39:51.980Z,4348.00
2022-08-07T07:40:40.541Z,4360.00
2022-08-07T07:42:02.327Z,4380.00
2022-08-07T07:42:40.757Z,4396.00
2022-08-07T07:44:14.344Z,4400.00
2022-08-07T07:44:41.017Z,4408.00
2022-08-07T07:46:38.023Z,4428.00
2022-08-07T07:46:55.200Z,4420.00
2022-08-07T07:47:52.052Z,4428.00
2022-08-07T07:48:41.516Z,4420.00
2022-08-07T07:50:35.392Z,4416.00
2022-08-07T07:50:41.777Z,4416.00
2022-08-07T07:51:57.389Z,4428.00
2022-08-07T07:52:42.039Z,4432.00
2022-08-07T07:53:51.934Z,4428.00
2022-08-07T07:54:50.854Z,4428.00
2022-08-07T07:55:45.715Z,4424.00
2022-08-07T07:56:42.658Z,4432.00
2022-08-07T07:57:50.514Z,4428.00
2022-08-07T07:58:42.797Z,4444.00
2022-08-07T07:59:52.223Z,4448.00
2022-08-07T08:00:43.059Z,4460.00
2022-08-07T08:02:03.812Z,4476.00
2022-08-07T08:03:04.720Z,4484.00
2022-08-07T08:04:05.770Z,4496.00
2022-08-07T08:04:43.633Z,4500.00
2022-08-07T08:05:54.338Z,4516.00
2022-08-07T08:06:50.913Z,4528.00
2022-08-07T08:07:59.782Z,4540.00
2022-08-07T08:08:44.066Z,4552.00
2022-08-07T08:09:52.358Z,4560.00
2022-08-07T08:10:44.299Z,4572.00
2022-08-07T08:12:00.060Z,4588.00
2022-08-07T08:12:52.233Z,4592.00
2022-08-07T08:13:53.989Z,4620.00
2022-08-07T08:14:44.787Z,4752.00
2022-08-07T08:15:57.712Z,5840.00
2022-08-07T08:18:36.531Z,6820.00
2022-08-07T08:18:36.891Z,6788.00
2022-08-07T08:18:45.315Z,6968.00
2022-08-07T08:20:18.169Z,6892.00
2022-08-07T08:20:45.586Z,6372.00
2022-08-07T08:21:56.014Z,6672.00
2022-08-07T08:22:55.845Z,7092.00
2022-08-07T08:23:46.209Z,7172.00
2022-08-07T08:24:46.650Z,6688.00
2022-08-07T08:25:49.564Z,6488.00
2022-08-07T08:26:45.319Z,6352.00
2022-08-07T08:27:56.276Z,6164.00
2022-08-07T08:28:46.581Z,6464.00
2022-08-07T08:29:54.518Z,6572.00
2022-08-07T08:30:51.392Z,6304.00
2022-08-07T08:32:18.251Z,6296.00
2022-08-07T08:32:49.090Z,6364.00
2022-08-07T08:33:49.431Z,6128.00
2022-08-07T08:34:47.379Z,6108.00
2022-08-07T08:35:49.703Z,6016.00
2022-08-07T08:36:46.621Z,5840.00
2022-08-07T08:38:01.445Z,5716.00
2022-08-07T08:38:47.876Z,5608.00
2022-08-07T08:39:54.846Z,5692.00
2022-08-07T08:40:48.091Z,5740.00
2022-08-07T08:41:58.234Z,5608.00
2022-08-07T08:42:48.343Z,5556.00
2022-08-07T08:43:50.460Z,5552.00
2022-08-07T08:44:48.600Z,5528.00
2022-08-07T08:46:00.796Z,5544.00
2022-08-07T08:46:48.843Z,5560.00
2022-08-07T08:47:54.767Z,5588.00
2022-08-07T08:48:51.065Z,5612.00
2022-08-07T08:50:04.908Z,5612.00
2022-08-07T08:50:49.350Z,5616.00
2022-08-07T08:51:49.494Z,5648.00
2022-08-07T08:52:53.806Z,5676.00
2022-08-07T08:53:48.751Z,5720.00
2022-08-07T08:54:48.878Z,5756.00
2022-08-07T08:55:54.630Z,5748.00
2022-08-07T08:56:50.109Z,5764.00
2022-08-07T08:57:49.242Z,5808.00
2022-08-07T08:58:50.468Z,5812.00
2022-08-07T08:59:50.484Z,5820.00
2022-08-07T09:00:52.645Z,5804.00
2022-08-07T09:01:49.839Z,5812.00
2022-08-07T09:02:52.489Z,5836.00
2022-08-07T09:03:53.047Z,5844.00
2022-08-07T09:04:51.045Z,5864.00
2022-08-07T09:05:52.941Z,5904.00
2022-08-07T09:06:50.337Z,5964.00
2022-08-07T09:07:57.436Z,6020.00
2022-08-07T09:08:51.540Z,6076.00
2022-08-07T09:09:57.172Z,6108.00
2022-08-07T09:10:51.812Z,6132.00
2022-08-07T09:11:55.441Z,6148.00
2022-08-07T09:12:52.997Z,6196.00
2022-08-07T09:13:51.203Z,6232.00
2022-08-07T09:14:51.360Z,6264.00
2022-08-07T09:16:23.066Z,6304.00
2022-08-07T09:16:52.592Z,6340.00
2022-08-07T09:18:00.391Z,6388.00
2022-08-07T09:18:53.293Z,6444.00
2022-08-07T09:19:55.287Z,6464.00
2022-08-07T09:21:57.905Z,6580.00
2022-08-07T09:24:33.305Z,6792.00
2022-08-07T09:24:52.443Z,6664.00
2022-08-07T09:25:07.083Z,7336.00
2022-08-07T09:25:58.827Z,9952.00
2022-08-07T09:26:57.970Z,10060.00
2022-08-07T09:28:00.691Z,8348.00
2022-08-07T09:30:00.560Z,7556.00
2022-08-07T09:30:04.786Z,7564.00
2022-08-07T09:30:59.426Z,7876.00
2022-08-07T09:31:58.605Z,7556.00
2022-08-07T09:32:58.686Z,7676.00
2022-08-07T09:33:59.807Z,7816.00
2022-08-07T09:34:58.921Z,7804.00
2022-08-07T09:36:04.889Z,7672.00
2022-08-07T09:37:00.155Z,7724.00
2022-08-07T09:38:00.477Z,7612.00
2022-08-07T09:38:59.484Z,7572.00
2022-08-07T09:40:00.643Z,7648.00
2022-08-07T09:40:59.697Z,7688.00
2022-08-07T09:42:05.848Z,7772.00
2022-08-07T09:43:00.946Z,7888.00
2022-08-07T09:44:06.092Z,8064.00
2022-08-07T09:47:24.370Z,8216.00
2022-08-07T09:47:49.909Z,8292.00
2022-08-07T09:47:52.543Z,8316.00
2022-08-07T09:48:05.207Z,8312.00
2022-08-07T09:50:01.223Z,8372.00
2022-08-07T09:50:18.977Z,8384.00
2022-08-07T09:51:01.968Z,8460.00
2022-08-07T09:52:15.852Z,8552.00
2022-08-07T09:53:02.207Z,8844.00
2022-08-07T09:54:02.890Z,9036.00
2022-08-07T09:55:01.449Z,9104.00
2022-08-07T09:56:03.443Z,9148.00
2022-08-07T09:57:01.707Z,9116.00
2022-08-07T09:58:01.829Z,9188.00
2022-08-07T09:59:01.979Z,9264.00
2022-08-07T10:00:03.377Z,9268.00
2022-08-07T10:01:02.207Z,9336.00
2022-08-07T10:02:03.399Z,9376.00
2022-08-07T10:03:08.370Z,9544.00
2022-08-07T10:04:14.202Z,9692.00
2022-08-07T10:05:12.617Z,9876.00
2022-08-07T10:06:08.983Z,9948.00
2022-08-07T10:07:04.017Z,10136.00
2022-08-07T10:08:03.259Z,10444.00
2022-08-07T10:09:03.279Z,10904.00
2022-08-07T10:10:03.476Z,11216.00
2022-08-07T10:12:00.627Z,11172.00
2022-08-07T10:12:15.198Z,11268.00
2022-08-07T10:13:04.790Z,11428.00
2022-08-07T10:14:04.878Z,11524.00
2022-08-07T10:15:04.019Z,11544.00
2022-08-07T10:16:05.105Z,11712.00
2022-08-07T10:17:04.310Z,12080.00
2022-08-07T10:18:05.430Z,12240.00
2022-08-07T10:19:04.529Z,12328.00
2022-08-07T10:20:05.650Z,12520.00
2022-08-07T10:21:19.950Z,12640.00
2022-08-07T10:22:15.833Z,12928.00
2022-08-07T10:23:07.625Z,13356.00
2022-08-07T10:24:08.474Z,13552.00
2022-08-07T10:25:05.284Z,13944.00
2022-08-07T10:26:05.432Z,14164.00
2022-08-07T10:27:06.690Z,14524.00
2022-08-07T10:28:05.667Z,15412.00
2022-08-07T10:29:05.821Z,16256.00
2022-08-07T10:30:06.412Z,16288.00
2022-08-07T10:31:11.316Z,17248.00
2022-08-07T10:32:36.396Z,23872.00
2022-08-07T10:33:08.389Z,32960.00
2022-08-07T10:34:17.925Z,32320.00
2022-08-07T10:35:09.166Z,32320.00
2022-08-07T10:36:11.331Z,34688.00
2022-08-07T10:37:12.399Z,30144.00
2022-08-07T10:38:21.676Z,34240.00
2022-08-07T10:39:08.463Z,36960.00
2022-08-07T10:40:08.832Z,35072.00
2022-08-07T10:41:07.294Z,37472.00
2022-08-07T10:42:09.288Z,28480.00
2022-08-07T10:43:08.564Z,22784.00
2022-08-07T10:44:07.963Z,21664.00
2022-08-07T10:45:07.834Z,18112.00
2022-08-07T10:46:07.946Z,20544.00
2022-08-07T10:47:11.788Z,37280.00
2022-08-07T10:48:08.672Z,21760.00
2022-08-07T10:49:08.298Z,40800.00
2022-08-07T10:50:08.446Z,35392.00
2022-08-07T10:51:16.439Z,8580.00
2022-08-07T10:52:13.411Z,20768.00
2022-08-07T10:53:09.134Z,37952.00
2022-08-07T10:54:08.953Z,41696.00
2022-08-07T10:55:27.068Z,45920.00
2022-08-07T10:56:11.113Z,45088.00
2022-08-07T10:57:10.329Z,46592.00
2022-08-07T10:58:10.225Z,47072.00
2022-08-07T10:59:09.587Z,53312.00
2022-08-07T11:00:09.698Z,58912.00
2022-08-07T11:01:11.657Z,61088.00
2022-08-07T11:02:12.365Z,64672.00
2022-08-07T11:03:12.756Z,55456.00
2022-08-07T11:04:16.542Z,49376.00
2022-08-07T11:05:11.285Z,46176.00
2022-08-07T11:06:10.370Z,44544.00
2022-08-07T11:07:14.878Z,40192.00
2022-08-07T11:08:11.888Z,39072.00
2022-08-07T11:09:11.390Z,34816.00
2022-08-07T11:10:11.315Z,21408.00
2022-08-07T11:11:10.975Z,48704.00
2022-08-07T11:12:11.115Z,49408.00
2022-08-07T11:13:16.923Z,47200.00
2022-08-07T11:14:57.057Z,43680.00
2022-08-07T11:15:17.210Z,42080.00
2022-08-07T11:16:12.594Z,48160.00
2022-08-07T11:17:11.715Z,47808.00
2022-08-07T11:18:12.538Z,26368.00
2022-08-07T11:19:11.956Z,43008.00
2022-08-07T11:20:12.065Z,49888.00
2022-08-07T11:21:12.185Z,46688.00
2022-08-07T11:22:27.211Z,44064.00
2022-08-07T11:23:26.363Z,46976.00
2022-08-07T11:24:13.567Z,49280.00
2022-08-07T11:25:12.669Z,54752.00
2022-08-07T11:26:13.054Z,53440.00
2022-08-07T11:27:13.532Z,47808.00
2022-08-07T11:28:15.289Z,48448.00
2022-08-07T11:29:42.093Z,49088.00
2022-08-07T11:30:18.193Z,50496.00
2022-08-07T11:31:13.476Z,51424.00
2022-08-07T11:32:13.508Z,17120.00
2022-08-07T11:33:14.035Z,10564.00
2022-08-07T11:34:16.332Z,9984.00
2022-08-07T11:35:16.677Z,9192.00
2022-08-07T11:36:15.077Z,9180.00
2022-08-07T11:37:15.166Z,9304.00
2022-08-07T11:38:17.318Z,9624.00
2022-08-07T11:39:14.762Z,10604.00
2022-08-07T11:40:19.156Z,12968.00
2022-08-07T11:41:18.181Z,37280.00
2022-08-07T11:42:18.803Z,13428.00
2022-08-07T11:43:15.395Z,48352.00
2022-08-07T11:44:18.641Z,44288.00
2022-08-07T11:45:15.078Z,12420.00
2022-08-07T11:46:16.921Z,11680.00
2022-08-07T11:47:15.309Z,11216.00
2022-08-07T11:48:29.136Z,10764.00
2022-08-07T11:49:51.171Z,10152.00
2022-08-07T11:50:32.384Z,9608.00
2022-08-07T11:51:41.817Z,10624.00
2022-08-07T11:52:16.930Z,11092.00
2022-08-07T11:53:16.047Z,11084.00
2022-08-07T11:54:16.139Z,11048.00
2022-08-07T11:55:19.122Z,15616.00
2022-08-07T11:56:26.786Z,43520.00
2022-08-07T11:57:17.542Z,62240.00
2022-08-07T11:58:16.717Z,40320.00
2022-08-07T12:00:08.816Z,51424.00
2022-08-07T12:00:19.168Z,54240.00
2022-08-07T12:01:20.154Z,58592.00
2022-08-07T12:02:21.001Z,65824.00
2022-08-07T12:03:41.640Z,65088.00
2022-08-07T12:04:18.420Z,39904.00
2022-08-07T12:05:28.492Z,60864.00
2022-08-07T12:06:36.879Z,64160.00
2022-08-07T12:07:27.048Z,62816.00
2022-08-07T12:08:25.936Z,59680.00
2022-08-07T12:09:23.804Z,59008.00
2022-08-07T12:10:18.195Z,58944.00
2022-08-07T12:11:20.523Z,56448.00
2022-08-07T12:12:18.442Z,57184.00
2022-08-07T12:13:35.302Z,59136.00
2022-08-07T12:14:19.712Z,61216.00
2022-08-07T12:15:45.983Z,60416.00
2022-08-07T12:16:29.937Z,61728.00
2022-08-07T12:17:20.479Z,60960.00
2022-08-07T12:18:22.067Z,61344.00
2022-08-07T12:19:21.671Z,59520.00
2022-08-07T12:20:30.087Z,59232.00
2022-08-07T12:21:21.029Z,58720.00
2022-08-07T12:22:38.940Z,60288.00
2022-08-07T12:23:21.381Z,60896.00
2022-08-07T12:24:37.533Z,59648.00
2022-08-07T12:26:02.915Z,59040.00
2022-08-07T12:26:30.104Z,58752.00